メインページ
METAR-TAF:

METAR-TAF

空港 :

オークランド国際空港

オークランド, ニュージーランド

緯度: 37-01S, 経度: 174-48E, 海抜: 7m

現時点の気象観測

当レポートは31分前の12:30(UTC)に作成
東/北東の風 2kt
気温 16°C
湿度 94%
気圧 1014 hPa
視程: 9000m

METAR: NZAA 101230Z AUTO 07002KT 9000 BKN013/// BKN019/// OVC025/// 16/15 Q1014 NOSIG

時間: 02:01 (13:01 UTC)

予報

当レポートは1時間41分前の11:20(UTC)に作成
予報は10日の 12時(UTC)から 11日の 12時(UTC)まで有効
北東の風 8kt
視程10km以上
高度1500ftの雲はほとんどない
高度2000ftの千切れ雲あり
10日の 12時(UTC)から 10日の 14時(UTC)まで徐々に
高度1200ftの千切れ雲あり
確率 30%
10日の 14時(UTC)から 10日の 20時(UTC)まで
高度400ftの千切れ雲あり
10日の 20時(UTC)から 10日の 22時(UTC)まで徐々に
高度3000ftの雲はほとんどない
11日の 0600時(UTC)から
西/南西の風 10kt
視程10km以上
高度2000ftの雲はほとんどない
高度3000ftの雲は散在している
弱いにわか雨
11日の 10時(UTC)から 11日の 12時(UTC)まで一時的に
高度800ftの千切れ雲あり

TAF: NZAA 101120Z 1012/1112 04008KT 9999 FEW015 BKN020 BECMG 1012/1014 BKN012 PROB30 1014/1020 BKN004 BECMG 1020/1022 FEW030 FM110600 24010KT 9999 -SHRA FEW020 SCT030 TEMPO 1110/1112 BKN008

4,000以上の空港の気象観測と天気予報(METAR報とTAF報)

利用可能な観測所は地図上に黄色い丸と赤い丸で示す。

丸の上にカーソルを重ねると観測所名を参照できる。

次にクリックすると気象観測と天気予報を参照できる。

マップの切り替え:黒色「×」印の緑ボタンをクリックして拡大、「-」印の緑ボタンをクリックして縮小、緑色の三角印をクリックして隣りの地図に切り替え


METAR-TAF: